createdAt,value
2017-11-21T00:00:00.319Z,25.10
2017-11-21T00:02:27.778Z,25.77
2017-11-21T00:04:55.265Z,26.10
2017-11-21T00:07:22.760Z,22.20
2017-11-21T00:09:50.215Z,20.47
2017-11-21T00:12:17.669Z,20.40
2017-11-21T00:14:45.369Z,23.03
2017-11-21T00:17:12.834Z,26.50
2017-11-21T00:19:40.298Z,21.27
2017-11-21T00:22:07.793Z,27.27
2017-11-21T00:24:35.273Z,28.93
2017-11-21T00:27:02.750Z,26.03
2017-11-21T00:29:30.233Z,25.03
2017-11-21T00:31:57.714Z,29.03
2017-11-21T00:34:25.356Z,22.80
2017-11-21T00:36:52.813Z,22.77
2017-11-21T00:39:20.278Z,22.80
2017-11-21T00:41:47.754Z,24.90
2017-11-21T00:44:15.221Z,24.37
2017-11-21T00:46:42.707Z,23.30
2017-11-21T00:49:10.170Z,21.20
2017-11-21T00:51:37.646Z,22.27
2017-11-21T00:54:05.096Z,19.80
2017-11-21T00:56:32.583Z,19.33
2017-11-21T00:59:00.046Z,18.50
2017-11-21T01:01:27.532Z,17.20
2017-11-21T01:03:55.024Z,17.13
2017-11-21T01:06:22.510Z,20.50
2017-11-21T01:08:49.970Z,16.40
2017-11-21T01:11:17.459Z,15.17
2017-11-21T01:13:44.952Z,18.67
2017-11-21T01:16:12.419Z,13.10
2017-11-21T01:18:39.922Z,14.97
2017-11-21T01:21:07.384Z,15.10
2017-11-21T01:23:34.835Z,11.70
2017-11-21T01:26:02.323Z,11.60
2017-11-21T01:28:29.800Z,11.03
2017-11-21T01:30:57.276Z,8.77
2017-11-21T01:33:24.742Z,9.20
2017-11-21T01:35:52.218Z,7.60
2017-11-21T01:38:19.714Z,6.60
2017-11-21T01:40:47.158Z,5.80
2017-11-21T01:43:14.635Z,6.17
2017-11-21T01:45:42.083Z,8.50
2017-11-21T01:48:09.528Z,7.07
2017-11-21T01:50:37.000Z,6.30
2017-11-21T01:53:04.444Z,6.43
2017-11-21T01:55:31.910Z,8.00
2017-11-21T01:57:59.355Z,7.00
2017-11-21T02:00:26.848Z,7.40
2017-11-21T02:03:04.954Z,7.50
2017-11-21T02:05:32.430Z,6.80
2017-11-21T02:07:59.892Z,5.80
2017-11-21T02:10:27.341Z,6.00
2017-11-21T02:12:54.813Z,6.57
2017-11-21T02:15:22.292Z,5.97
2017-11-21T02:17:49.746Z,7.63
2017-11-21T02:20:17.350Z,9.93
2017-11-21T02:22:44.805Z,9.80
2017-11-21T02:25:12.282Z,12.80
2017-11-21T02:27:39.735Z,12.30
2017-11-21T02:30:07.222Z,11.43
2017-11-21T02:32:34.677Z,8.30
2017-11-21T02:35:02.160Z,8.67
2017-11-21T02:37:30.018Z,9.23
2017-11-21T02:39:57.472Z,7.50
2017-11-21T02:42:24.926Z,5.83
2017-11-21T02:44:52.407Z,6.40
2017-11-21T02:47:19.874Z,5.30
2017-11-21T02:49:47.346Z,6.37
2017-11-21T02:52:14.803Z,5.73
2017-11-21T02:54:42.284Z,5.97
2017-11-21T02:57:09.734Z,6.80
2017-11-21T02:59:37.212Z,5.27
2017-11-21T03:02:04.986Z,5.57
2017-11-21T03:04:32.447Z,5.30
2017-11-21T03:06:59.918Z,6.23
2017-11-21T03:09:27.404Z,6.13
2017-11-21T03:11:54.860Z,6.20
2017-11-21T03:14:22.354Z,7.43
2017-11-21T03:16:49.804Z,7.20
2017-11-21T03:19:17.251Z,7.60
2017-11-21T03:21:56.466Z,8.70
2017-11-21T03:24:35.612Z,9.30
2017-11-21T03:27:11.776Z,10.17
2017-11-21T03:29:39.230Z,9.27
2017-11-21T03:32:06.725Z,10.07
2017-11-21T03:34:34.187Z,10.73
2017-11-21T03:37:01.672Z,8.40
2017-11-21T03:39:29.161Z,9.83
2017-11-21T03:41:56.640Z,11.13
2017-11-21T03:44:24.100Z,11.30
2017-11-21T03:46:51.570Z,12.97
2017-11-21T03:49:19.054Z,11.07
2017-11-21T03:51:46.515Z,12.60
2017-11-21T03:54:14.003Z,13.00
2017-11-21T03:56:41.471Z,14.13
2017-11-21T03:59:08.953Z,13.30
2017-11-21T04:01:36.401Z,14.30
2017-11-21T04:04:03.878Z,14.33
2017-11-21T04:06:31.331Z,16.40
2017-11-21T04:08:58.795Z,14.30
2017-11-21T04:11:26.277Z,16.23
2017-11-21T04:13:53.737Z,17.60
2017-11-21T04:16:21.233Z,14.97
2017-11-21T04:18:48.715Z,16.57
2017-11-21T04:21:16.167Z,16.07
2017-11-21T04:23:43.662Z,15.47
2017-11-21T04:26:11.122Z,15.87
2017-11-21T04:28:38.591Z,13.47
2017-11-21T04:31:06.073Z,11.47
2017-11-21T04:33:33.563Z,12.83
2017-11-21T04:36:01.025Z,15.80
2017-11-21T04:38:28.502Z,13.87
2017-11-21T04:40:55.962Z,12.40
2017-11-21T04:43:23.439Z,14.83
2017-11-21T04:45:50.920Z,13.63
2017-11-21T04:48:18.382Z,11.47
2017-11-21T04:50:45.878Z,16.37
2017-11-21T04:53:13.342Z,12.43
2017-11-21T04:55:40.804Z,14.43
2017-11-21T04:58:08.296Z,13.83
2017-11-21T05:00:35.937Z,15.47
2017-11-21T05:03:03.417Z,13.50
2017-11-21T05:05:30.886Z,14.83
2017-11-21T05:07:58.360Z,13.30
2017-11-21T05:10:25.819Z,11.57
2017-11-21T05:12:53.308Z,12.23
2017-11-21T05:15:20.776Z,12.23
2017-11-21T05:17:48.246Z,12.57
2017-11-21T05:20:15.729Z,13.13
2017-11-21T05:22:43.228Z,15.70
2017-11-21T05:25:10.698Z,14.87
2017-11-21T05:27:38.158Z,16.33
2017-11-21T05:30:05.646Z,15.57
2017-11-21T05:32:45.148Z,16.27
2017-11-21T05:35:12.647Z,21.27
2017-11-21T05:37:40.113Z,16.63
2017-11-21T05:40:07.594Z,16.80
2017-11-21T05:42:35.056Z,15.00
2017-11-21T05:45:02.547Z,18.30
2017-11-21T05:47:30.032Z,16.30
2017-11-21T05:49:57.712Z,16.37
2017-11-21T05:52:25.173Z,17.60
2017-11-21T05:54:52.658Z,16.40
2017-11-21T05:57:20.121Z,17.60
2017-11-21T05:59:47.591Z,16.67
2017-11-21T06:02:15.053Z,16.97
2017-11-21T06:04:42.524Z,16.97
2017-11-21T06:07:09.981Z,17.63
2017-11-21T06:09:37.471Z,17.77
2017-11-21T06:12:04.935Z,19.00
2017-11-21T06:14:32.400Z,16.93
2017-11-21T06:16:59.887Z,17.33
2017-11-21T06:19:27.353Z,18.00
2017-11-21T06:21:54.836Z,16.57
2017-11-21T06:24:23.181Z,16.93
2017-11-21T06:26:50.634Z,19.50
2017-11-21T06:29:18.107Z,16.50
2017-11-21T06:31:45.587Z,17.53
2017-11-21T06:34:13.071Z,19.00
2017-11-21T06:36:40.535Z,18.30
2017-11-21T06:39:08.022Z,16.40
2017-11-21T06:41:35.487Z,16.57
2017-11-21T06:44:02.956Z,16.03
2017-11-21T06:46:30.448Z,14.00
2017-11-21T06:48:57.915Z,15.30
2017-11-21T06:51:25.401Z,14.80
2017-11-21T06:53:52.882Z,16.23
2017-11-21T06:56:20.336Z,13.00
2017-11-21T06:58:47.831Z,13.25
2017-11-21T07:01:15.291Z,10.57
2017-11-21T07:03:42.746Z,14.27
2017-11-21T07:06:10.226Z,18.08
2017-11-21T07:08:37.718Z,20.05
2017-11-21T07:11:05.186Z,22.02
2017-11-21T07:13:32.833Z,22.00
2017-11-21T07:16:00.292Z,13.73
2017-11-21T07:18:27.746Z,18.92
2017-11-21T07:20:55.246Z,22.98
2017-11-21T07:23:22.735Z,21.40
2017-11-21T07:25:50.220Z,18.50
2017-11-21T07:28:17.716Z,18.05
2017-11-21T07:30:45.181Z,18.92
2017-11-21T07:33:12.650Z,18.87
2017-11-21T07:35:40.127Z,19.23
2017-11-21T07:38:07.590Z,19.95
2017-11-21T07:40:35.074Z,20.02
2017-11-21T07:43:02.551Z,15.38
2017-11-21T07:45:30.000Z,8.07
2017-11-21T07:47:57.480Z,16.67
2017-11-21T07:50:24.937Z,17.67
2017-11-21T07:52:52.471Z,16.62
2017-11-21T07:55:19.929Z,15.15
2017-11-21T07:57:47.387Z,15.43
2017-11-21T08:00:14.870Z,16.70
2017-11-21T08:02:42.339Z,15.57
2017-11-21T08:05:09.816Z,13.73
2017-11-21T08:07:37.316Z,13.00
2017-11-21T08:10:05.038Z,12.98
2017-11-21T08:12:32.497Z,12.40
2017-11-21T08:14:59.966Z,9.82
2017-11-21T08:17:27.457Z,8.07
2017-11-21T08:19:54.915Z,10.15
2017-11-21T08:22:22.399Z,9.80
2017-11-21T08:24:49.858Z,9.80
2017-11-21T08:27:17.315Z,10.18
2017-11-21T08:29:44.790Z,9.30
2017-11-21T08:32:12.255Z,10.00
2017-11-21T08:34:39.739Z,9.93
2017-11-21T08:37:07.182Z,3.33
2017-11-21T08:39:34.655Z,6.60
2017-11-21T08:42:02.122Z,8.87
2017-11-21T08:44:29.579Z,8.13
2017-11-21T08:46:57.055Z,8.37
2017-11-21T08:49:24.518Z,8.73
2017-11-21T08:51:51.966Z,7.63
2017-11-21T08:54:19.455Z,7.20
2017-11-21T08:56:46.922Z,9.90
2017-11-21T08:59:14.397Z,6.93
2017-11-21T09:01:41.858Z,10.65
2017-11-21T09:04:09.334Z,9.70
2017-11-21T09:06:36.786Z,6.80
2017-11-21T09:09:04.264Z,7.40
2017-11-21T09:11:31.717Z,7.80
2017-11-21T09:13:59.199Z,7.60
2017-11-21T09:16:26.839Z,6.40
2017-11-21T09:18:54.299Z,5.07
2017-11-21T09:21:21.771Z,5.50
2017-11-21T09:23:49.218Z,6.10
2017-11-21T09:26:16.697Z,6.80
2017-11-21T09:28:44.163Z,7.60
2017-11-21T09:31:11.662Z,6.70
2017-11-21T09:33:39.126Z,6.80
2017-11-21T09:36:06.622Z,5.15
2017-11-21T09:38:34.076Z,5.32
2017-11-21T09:41:01.523Z,4.82
2017-11-21T09:43:29.006Z,5.40
2017-11-21T09:45:56.459Z,5.90
2017-11-21T09:48:23.934Z,4.57
2017-11-21T09:50:51.386Z,3.90
2017-11-21T10:00:01.921Z,3.20
2017-11-21T10:02:29.374Z,3.90
2017-11-21T10:04:56.996Z,2.83
2017-11-21T10:07:24.503Z,4.20
2017-11-21T10:09:51.963Z,3.80
2017-11-21T10:12:19.414Z,3.43
2017-11-21T10:14:46.886Z,3.47
2017-11-21T10:17:14.328Z,4.00
2017-11-21T10:19:41.792Z,5.90
2017-11-21T10:22:09.292Z,5.97
2017-11-21T10:24:36.771Z,5.87
2017-11-21T10:27:04.225Z,4.13
2017-11-21T10:29:31.698Z,4.30
2017-11-21T10:31:59.155Z,5.80
2017-11-21T10:34:26.629Z,4.73
2017-11-21T10:36:54.083Z,4.60
2017-11-21T10:39:21.554Z,4.70
2017-11-21T10:41:49.063Z,5.70
2017-11-21T10:44:16.535Z,4.30
2017-11-21T10:46:43.982Z,4.23
2017-11-21T10:49:11.449Z,4.03
2017-11-21T10:51:38.894Z,3.97
2017-11-21T10:54:06.361Z,4.60
2017-11-21T10:56:33.832Z,5.20
2017-11-21T10:59:01.290Z,5.50
2017-11-21T11:01:28.767Z,4.43
2017-11-21T11:03:56.221Z,5.03
2017-11-21T11:06:23.695Z,4.60
2017-11-21T11:08:51.175Z,3.43
2017-11-21T11:11:18.628Z,3.33
2017-11-21T11:13:46.080Z,5.87
2017-11-21T11:16:13.555Z,5.63
2017-11-21T11:18:41.016Z,7.40
2017-11-21T11:21:08.487Z,5.03
2017-11-21T11:23:35.940Z,5.40
2017-11-21T11:26:03.442Z,4.80
2017-11-21T11:28:30.955Z,4.60
2017-11-21T11:30:58.427Z,4.50
2017-11-21T11:33:25.883Z,4.57
2017-11-21T11:35:53.359Z,3.90
2017-11-21T11:38:20.835Z,5.40
2017-11-21T11:40:48.279Z,5.00
2017-11-21T11:43:15.761Z,6.75
2017-11-21T11:45:43.218Z,7.12
2017-11-21T11:48:10.697Z,5.70
2017-11-21T11:50:38.142Z,6.68
2017-11-21T11:53:05.625Z,8.37
2017-11-21T11:55:33.082Z,7.65
2017-11-21T11:58:00.544Z,6.90
2017-11-21T12:00:28.016Z,6.35
2017-11-21T12:02:55.503Z,6.00
2017-11-21T12:05:22.967Z,6.30
2017-11-21T12:07:50.421Z,5.13
2017-11-21T12:10:17.989Z,7.50
2017-11-21T12:12:45.479Z,7.10
2017-11-21T12:15:12.986Z,6.90
2017-11-21T12:17:40.493Z,6.77
2017-11-21T12:20:07.945Z,5.77
2017-11-21T12:22:35.434Z,7.62
2017-11-21T12:25:02.913Z,7.93
2017-11-21T12:27:30.411Z,4.77
2017-11-21T12:29:57.920Z,6.50
2017-11-21T12:32:25.387Z,11.70
2017-11-21T12:34:52.877Z,6.00
2017-11-21T12:37:20.322Z,5.23
2017-11-21T12:39:47.797Z,7.68
2017-11-21T12:42:15.322Z,5.70
2017-11-21T12:44:43.159Z,5.50
2017-11-21T12:47:10.628Z,7.30
2017-11-21T12:49:38.094Z,9.35
2017-11-21T12:52:05.574Z,9.77
2017-11-21T12:54:33.059Z,7.00
2017-11-21T12:57:00.511Z,7.65
2017-11-21T12:59:28.007Z,6.30
2017-11-21T13:01:55.462Z,7.78
2017-11-21T13:04:22.937Z,6.40
2017-11-21T13:06:50.411Z,6.83
2017-11-21T13:09:17.887Z,5.70
2017-11-21T13:11:45.370Z,8.80
2017-11-21T13:14:12.835Z,6.90
2017-11-21T13:16:40.329Z,7.40
2017-11-21T13:19:07.792Z,5.03
2017-11-21T13:21:35.254Z,6.43
2017-11-21T13:24:02.810Z,6.97
2017-11-21T13:26:30.311Z,5.97
2017-11-21T13:28:57.781Z,6.43
2017-11-21T13:31:25.477Z,6.07
2017-11-21T13:33:52.954Z,5.37
2017-11-21T13:36:20.411Z,5.10
2017-11-21T13:38:47.898Z,7.30
2017-11-21T13:41:15.350Z,6.53
2017-11-21T13:43:42.867Z,6.23
2017-11-21T13:46:10.320Z,5.80
2017-11-21T13:48:37.794Z,5.63
2017-11-21T13:51:05.276Z,6.47
2017-11-21T13:53:32.750Z,7.35
2017-11-21T13:56:00.202Z,6.80
2017-11-21T13:58:28.081Z,5.60
2017-11-21T14:00:55.609Z,3.30
2017-11-21T14:03:23.059Z,3.07
2017-11-21T14:05:50.767Z,3.37
2017-11-21T14:08:18.231Z,2.70
2017-11-21T14:10:45.687Z,2.40
2017-11-21T14:13:13.162Z,2.10
2017-11-21T14:15:40.622Z,3.10
2017-11-21T14:18:08.101Z,2.17
2017-11-21T14:20:35.551Z,3.50
2017-11-21T14:23:03.027Z,3.00
2017-11-21T14:25:30.469Z,2.65
2017-11-21T14:27:57.954Z,2.62
2017-11-21T14:30:25.404Z,2.83
2017-11-21T14:32:53.777Z,5.35
2017-11-21T14:35:21.223Z,3.20
2017-11-21T14:37:48.720Z,3.95
2017-11-21T14:40:16.183Z,3.78
2017-11-21T14:42:43.655Z,3.53
2017-11-21T14:45:11.138Z,3.80
2017-11-21T14:47:38.618Z,3.65
2017-11-21T14:50:06.083Z,3.72
2017-11-21T14:52:33.714Z,3.47
2017-11-21T14:55:01.517Z,3.78
2017-11-21T14:57:28.990Z,2.90
2017-11-21T14:59:56.451Z,3.58
2017-11-21T15:02:23.924Z,3.40
2017-11-21T15:04:52.044Z,3.50
2017-11-21T15:07:19.518Z,2.95
2017-11-21T15:09:46.986Z,3.08
2017-11-21T15:12:14.450Z,6.22
2017-11-21T15:14:41.923Z,4.75
2017-11-21T15:17:09.467Z,5.80
2017-11-21T15:19:36.963Z,3.80
2017-11-21T15:22:04.534Z,5.45
2017-11-21T15:24:32.013Z,5.25
2017-11-21T15:26:59.459Z,4.35
2017-11-21T15:29:26.913Z,6.65
2017-11-21T15:31:54.402Z,6.10
2017-11-21T15:34:21.869Z,6.65
2017-11-21T15:36:49.340Z,4.77
2017-11-21T15:39:16.794Z,3.90
2017-11-21T15:41:44.267Z,5.93
2017-11-21T15:44:11.744Z,7.97
2017-11-21T15:46:39.218Z,7.82
2017-11-21T15:49:06.698Z,6.65
2017-11-21T15:51:34.166Z,6.93
2017-11-21T15:54:01.621Z,7.55
2017-11-21T15:56:29.105Z,10.60
2017-11-21T15:58:56.566Z,10.90
2017-11-21T16:01:24.096Z,8.88
2017-11-21T16:03:51.561Z,9.00
2017-11-21T16:06:19.054Z,12.05
2017-11-21T16:08:46.539Z,14.30
2017-11-21T16:11:14.024Z,17.12
2017-11-21T16:13:41.479Z,17.50
2017-11-21T16:16:09.003Z,15.13
2017-11-21T16:18:36.458Z,13.75
2017-11-21T16:21:03.923Z,19.42
2017-11-21T16:23:31.458Z,16.55
2017-11-21T16:25:58.986Z,22.37
2017-11-21T16:28:26.462Z,18.48
2017-11-21T16:30:53.965Z,22.80
2017-11-21T16:33:21.426Z,21.52
2017-11-21T16:35:48.902Z,19.92
2017-11-21T16:38:16.386Z,18.17
2017-11-21T16:40:43.915Z,14.40
2017-11-21T16:43:11.395Z,19.25
2017-11-21T16:45:38.895Z,22.02
2017-11-21T16:48:06.394Z,28.20
2017-11-21T16:50:33.858Z,22.17
2017-11-21T16:53:03.183Z,22.45
2017-11-21T16:55:30.769Z,21.80
2017-11-21T16:57:58.269Z,20.90
2017-11-21T17:00:25.733Z,20.67
2017-11-21T17:02:53.216Z,21.77
2017-11-21T17:05:20.683Z,22.98
2017-11-21T17:07:48.197Z,23.65
2017-11-21T17:10:15.767Z,21.95
2017-11-21T17:12:43.235Z,25.55
2017-11-21T17:15:10.725Z,20.20
2017-11-21T17:17:38.228Z,17.30
2017-11-21T17:20:05.687Z,20.33
2017-11-21T17:22:33.177Z,20.52
2017-11-21T17:25:00.638Z,16.10
2017-11-21T17:27:28.150Z,15.40
2017-11-21T17:29:55.630Z,13.73
2017-11-21T17:32:23.097Z,14.10
2017-11-21T17:34:50.574Z,15.85
2017-11-21T17:37:18.068Z,15.85
2017-11-21T17:39:45.546Z,13.33
2017-11-21T17:42:13.031Z,13.88
2017-11-21T17:44:40.527Z,14.40
2017-11-21T17:47:08.001Z,15.20
2017-11-21T17:49:35.486Z,17.03
2017-11-21T17:52:02.947Z,21.95
2017-11-21T17:54:30.429Z,19.50
2017-11-21T17:56:57.919Z,19.40
2017-11-21T17:59:25.382Z,17.83
2017-11-21T18:01:52.862Z,16.80
2017-11-21T18:04:20.319Z,17.90
2017-11-21T18:06:47.805Z,16.05
2017-11-21T18:09:15.291Z,19.00
2017-11-21T18:11:42.775Z,18.17
2017-11-21T18:14:10.261Z,17.80
2017-11-21T18:16:37.723Z,18.35
2017-11-21T18:19:05.188Z,21.60
2017-11-21T18:21:32.671Z,21.33
2017-11-21T18:24:00.156Z,19.83
2017-11-21T18:26:27.977Z,20.25
2017-11-21T18:28:55.450Z,23.00
2017-11-21T18:31:22.940Z,28.23
2017-11-21T18:33:50.432Z,23.12
2017-11-21T18:36:17.902Z,20.10
2017-11-21T18:38:45.377Z,22.20
2017-11-21T18:41:12.867Z,15.37
2017-11-21T18:43:40.511Z,25.27
2017-11-21T18:46:07.970Z,22.90
2017-11-21T18:48:35.426Z,21.83
2017-11-21T18:51:03.180Z,20.80
2017-11-21T18:53:30.700Z,13.43
2017-11-21T18:55:58.190Z,20.62
2017-11-21T18:58:25.654Z,19.30
2017-11-21T19:00:53.114Z,18.10
2017-11-21T19:03:20.587Z,22.37
2017-11-21T19:05:48.084Z,20.77
2017-11-21T19:08:15.562Z,17.35
2017-11-21T19:10:44.003Z,15.50
2017-11-21T19:13:11.484Z,13.03
2017-11-21T19:15:38.941Z,11.80
2017-11-21T19:18:06.406Z,12.03
2017-11-21T19:20:33.909Z,14.20
2017-11-21T19:23:01.447Z,13.00
2017-11-21T19:25:28.946Z,17.62
2017-11-21T19:27:56.427Z,16.87
2017-11-21T19:30:23.899Z,16.65
2017-11-21T19:32:51.361Z,14.80
2017-11-21T19:35:18.876Z,13.53
2017-11-21T19:37:46.359Z,18.33
2017-11-21T19:40:13.869Z,16.30
2017-11-21T19:42:41.330Z,18.73
2017-11-21T19:45:08.828Z,20.55
2017-11-21T19:47:36.316Z,19.83
2017-11-21T19:50:03.819Z,23.93
2017-11-21T19:52:31.285Z,14.30
2017-11-21T19:54:58.753Z,16.47
2017-11-21T19:57:26.225Z,15.27
2017-11-21T19:59:53.719Z,18.67
2017-11-21T20:02:21.317Z,21.67
2017-11-21T20:04:48.791Z,19.50
2017-11-21T20:07:16.250Z,19.07
2017-11-21T20:09:43.742Z,20.13
2017-11-21T20:12:11.251Z,40.80
2017-11-21T20:14:38.728Z,35.60
2017-11-21T20:17:06.202Z,37.83
2017-11-21T20:19:33.672Z,19.33
2017-11-21T20:22:01.342Z,20.17
2017-11-21T20:24:28.811Z,20.30
2017-11-21T20:26:56.294Z,20.00
2017-11-21T20:29:23.762Z,32.13
2017-11-21T20:31:51.261Z,21.80
2017-11-21T20:34:18.735Z,31.00
2017-11-21T20:36:46.202Z,34.17
2017-11-21T20:39:13.696Z,28.50
2017-11-21T20:41:41.187Z,23.30
2017-11-21T20:44:08.661Z,20.50
2017-11-21T20:46:36.138Z,20.80
2017-11-21T20:49:03.602Z,21.20
2017-11-21T20:51:31.099Z,21.17
2017-11-21T20:53:58.573Z,27.70
2017-11-21T20:56:26.068Z,27.77
2017-11-21T20:58:53.527Z,26.40
2017-11-21T21:01:21.895Z,25.63
2017-11-21T21:03:49.358Z,22.90
2017-11-21T21:06:16.852Z,21.67
2017-11-21T21:08:44.334Z,24.77
2017-11-21T21:11:11.799Z,26.57
2017-11-21T21:13:39.270Z,28.47
2017-11-21T21:16:06.751Z,24.00
2017-11-21T21:18:34.241Z,21.90
2017-11-21T21:21:01.723Z,23.60
2017-11-21T21:23:29.208Z,20.17
2017-11-21T21:25:56.693Z,20.73
2017-11-21T21:28:24.156Z,19.70
2017-11-21T21:30:51.614Z,20.27
2017-11-21T21:33:19.101Z,21.20
2017-11-21T21:35:46.566Z,19.73
2017-11-21T21:38:14.028Z,21.10
2017-11-21T21:40:41.505Z,19.27
2017-11-21T21:43:08.965Z,20.00
2017-11-21T21:45:36.430Z,19.77
2017-11-21T21:48:03.923Z,19.60
2017-11-21T21:50:31.390Z,19.07
2017-11-21T21:52:58.866Z,21.50
2017-11-21T21:55:26.328Z,22.87
2017-11-21T21:57:53.815Z,22.43
2017-11-21T22:00:21.271Z,22.50
2017-11-21T22:02:48.771Z,21.37
2017-11-21T22:05:16.230Z,26.10
2017-11-21T22:07:43.699Z,26.30
2017-11-21T22:10:11.192Z,26.90
2017-11-21T22:12:38.664Z,25.50
2017-11-21T22:15:06.146Z,25.37
2017-11-21T22:17:33.651Z,28.73
2017-11-21T22:20:01.115Z,28.47
2017-11-21T22:22:28.612Z,28.17
2017-11-21T22:24:56.086Z,28.40
2017-11-21T22:27:23.547Z,27.47
2017-11-21T22:29:51.006Z,29.70
2017-11-21T22:32:18.501Z,31.53
2017-11-21T22:34:45.958Z,29.40
2017-11-21T22:37:13.442Z,29.80
2017-11-21T22:39:40.908Z,30.20
2017-11-21T22:42:08.380Z,32.70
2017-11-21T22:44:35.854Z,29.70
2017-11-21T22:47:03.305Z,32.83
2017-11-21T22:49:30.792Z,28.83
2017-11-21T22:51:58.250Z,29.87
2017-11-21T22:54:25.738Z,33.53
2017-11-21T22:56:53.229Z,34.47
2017-11-21T22:59:20.687Z,34.43
2017-11-21T23:01:48.164Z,33.73
2017-11-21T23:04:15.619Z,36.57
2017-11-21T23:06:43.101Z,38.60
2017-11-21T23:09:10.585Z,37.73
2017-11-21T23:11:38.051Z,41.50
2017-11-21T23:14:05.553Z,40.97
2017-11-21T23:16:33.021Z,37.20
2017-11-21T23:19:00.479Z,39.03
2017-11-21T23:21:27.963Z,44.00
2017-11-21T23:23:55.423Z,43.80
2017-11-21T23:26:22.906Z,43.03
2017-11-21T23:28:50.396Z,45.00
2017-11-21T23:31:17.867Z,47.60
2017-11-21T23:33:45.356Z,46.00
2017-11-21T23:36:12.818Z,46.57
2017-11-21T23:38:40.281Z,45.23
2017-11-21T23:41:07.774Z,48.37
2017-11-21T23:43:35.233Z,46.20
2017-11-21T23:46:02.695Z,44.70
2017-11-21T23:48:30.175Z,42.70
2017-11-21T23:50:57.640Z,42.83
2017-11-21T23:53:25.127Z,40.37
2017-11-21T23:55:52.583Z,44.30
2017-11-21T23:58:20.071Z,42.30
